sensor_id;sensor_type;location;lat;lon;timestamp;pressure;altitude;pressure_sealevel;temperature;humidity
46087;BME280;31824;49.648;8.640;2023-04-03T00:00:55;101331.47;;;2.01;100.00
46087;BME280;31824;49.648;8.640;2023-04-03T00:03:58;101339.06;;;1.94;100.00
46087;BME280;31824;49.648;8.640;2023-04-03T00:07:00;101339.81;;;1.88;100.00
46087;BME280;31824;49.648;8.640;2023-04-03T00:10:05;101332.78;;;1.87;100.00
46087;BME280;31824;49.648;8.640;2023-04-03T00:13:07;101339.59;;;1.86;100.00
46087;BME280;31824;49.648;8.640;2023-04-03T00:16:10;101345.75;;;1.81;100.00
46087;BME280;31824;49.648;8.640;2023-04-03T00:19:12;101344.84;;;1.80;100.00
46087;BME280;31824;49.648;8.640;2023-04-03T00:22:14;101348.69;;;1.71;100.00
46087;BME280;31824;49.648;8.640;2023-04-03T00:25:18;101345.75;;;1.81;100.00
46087;BME280;31824;49.648;8.640;2023-04-03T00:28:20;101352.44;;;1.73;100.00
46087;BME280;31824;49.648;8.640;2023-04-03T00:31:22;101345.00;;;1.63;100.00
46087;BME280;31824;49.648;8.640;2023-04-03T00:34:24;101345.47;;;1.61;100.00
46087;BME280;31824;49.648;8.640;2023-04-03T00:37:26;101348.81;;;1.54;100.00
46087;BME280;31824;49.648;8.640;2023-04-03T00:40:34;101356.66;;;1.43;100.00
46087;BME280;31824;49.648;8.640;2023-04-03T00:43:37;101357.78;;;1.50;100.00
46087;BME280;31824;49.648;8.640;2023-04-03T00:46:38;101359.94;;;1.47;100.00
46087;BME280;31824;49.648;8.640;2023-04-03T00:49:42;101362.09;;;1.39;100.00
46087;BME280;31824;49.648;8.640;2023-04-03T00:52:45;101366.13;;;1.37;100.00
46087;BME280;31824;49.648;8.640;2023-04-03T00:55:51;101365.41;;;1.38;100.00
46087;BME280;31824;49.648;8.640;2023-04-03T00:58:56;101361.47;;;1.28;100.00
46087;BME280;31824;49.648;8.640;2023-04-03T01:02:00;101362.63;;;1.30;100.00
46087;BME280;31824;49.648;8.640;2023-04-03T01:05:04;101361.69;;;1.30;100.00
46087;BME280;31824;49.648;8.640;2023-04-03T01:08:10;101359.81;;;1.29;100.00
46087;BME280;31824;49.648;8.640;2023-04-03T01:11:14;101359.38;;;1.26;100.00
46087;BME280;31824;49.648;8.640;2023-04-03T01:14:17;101359.84;;;1.23;100.00
46087;BME280;31824;49.648;8.640;2023-04-03T01:17:30;101356.50;;;1.30;100.00
46087;BME280;31824;49.648;8.640;2023-04-03T01:20:47;101353.06;;;1.18;100.00
46087;BME280;31824;49.648;8.640;2023-04-03T01:24:00;101348.16;;;1.08;100.00
46087;BME280;31824;49.648;8.640;2023-04-03T01:27:10;101355.03;;;1.02;100.00
46087;BME280;31824;49.648;8.640;2023-04-03T01:30:19;101350.50;;;1.12;100.00
46087;BME280;31824;49.648;8.640;2023-04-03T01:33:25;101357.13;;;1.05;100.00
46087;BME280;31824;49.648;8.640;2023-04-03T01:36:30;101357.84;;;0.98;100.00
46087;BME280;31824;49.648;8.640;2023-04-03T01:39:37;101360.97;;;0.95;100.00
46087;BME280;31824;49.648;8.640;2023-04-03T01:42:39;101361.69;;;0.89;100.00
46087;BME280;31824;49.648;8.640;2023-04-03T01:45:41;101356.53;;;0.83;100.00
46087;BME280;31824;49.648;8.640;2023-04-03T01:48:47;101360.09;;;0.78;100.00
46087;BME280;31824;49.648;8.640;2023-04-03T01:51:50;101369.94;;;0.75;100.00
46087;BME280;31824;49.648;8.640;2023-04-03T01:54:52;101366.19;;;0.78;100.00
46087;BME280;31824;49.648;8.640;2023-04-03T01:57:54;101371.63;;;0.69;100.00
46087;BME280;31824;49.648;8.640;2023-04-03T02:00:58;101369.94;;;0.75;100.00
46087;BME280;31824;49.648;8.640;2023-04-03T02:04:02;101368.34;;;0.70;100.00
46087;BME280;31824;49.648;8.640;2023-04-03T02:07:04;101369.78;;;0.62;100.00
46087;BME280;31824;49.648;8.640;2023-04-03T02:10:08;101373.06;;;0.61;100.00
46087;BME280;31824;49.648;8.640;2023-04-03T02:13:10;101370.72;;;0.57;100.00
46087;BME280;31824;49.648;8.640;2023-04-03T02:16:15;101365.78;;;0.58;100.00
46087;BME280;31824;49.648;8.640;2023-04-03T02:19:20;101369.56;;;0.55;100.00
46087;BME280;31824;49.648;8.640;2023-04-03T02:22:22;101370.50;;;0.55;100.00
46087;BME280;31824;49.648;8.640;2023-04-03T02:25:27;101372.88;;;0.48;100.00
46087;BME280;31824;49.648;8.640;2023-04-03T02:28:29;101367.47;;;0.52;100.00
46087;BME280;31824;49.648;8.640;2023-04-03T02:31:33;101361.59;;;0.47;100.00
46087;BME280;31824;49.648;8.640;2023-04-03T02:34:38;101366.97;;;0.49;100.00
46087;BME280;31824;49.648;8.640;2023-04-03T02:37:45;101370.03;;;0.58;100.00
46087;BME280;31824;49.648;8.640;2023-04-03T02:40:48;101373.78;;;0.65;100.00
46087;BME280;31824;49.648;8.640;2023-04-03T02:43:51;101369.09;;;0.57;100.00
46087;BME280;31824;49.648;8.640;2023-04-03T02:46:53;101366.00;;;0.60;100.00
46087;BME280;31824;49.648;8.640;2023-04-03T02:49:56;101374.22;;;0.69;100.00
46087;BME280;31824;49.648;8.640;2023-04-03T02:52:58;101367.13;;;0.79;100.00
46087;BME280;31824;49.648;8.640;2023-04-03T02:56:00;101359.41;;;0.67;100.00
46087;BME280;31824;49.648;8.640;2023-04-03T02:59:02;101359.16;;;0.72;100.00
46087;BME280;31824;49.648;8.640;2023-04-03T03:02:06;101356.06;;;0.80;100.00
46087;BME280;31824;49.648;8.640;2023-04-03T03:05:10;101351.16;;;0.76;100.00
46087;BME280;31824;49.648;8.640;2023-04-03T03:08:13;101346.88;;;0.88;100.00
46087;BME280;31824;49.648;8.640;2023-04-03T03:11:15;101349.50;;;0.82;100.00
46087;BME280;31824;49.648;8.640;2023-04-03T03:14:17;101357.75;;;0.74;100.00
46087;BME280;31824;49.648;8.640;2023-04-03T03:17:19;101354.69;;;0.71;100.00
46087;BME280;31824;49.648;8.640;2023-04-03T03:20:23;101352.59;;;0.68;100.00
46087;BME280;31824;49.648;8.640;2023-04-03T03:23:26;101347.44;;;0.62;100.00
46087;BME280;31824;49.648;8.640;2023-04-03T03:26:31;101354.50;;;0.58;100.00
46087;BME280;31824;49.648;8.640;2023-04-03T03:29:36;101351.00;;;0.52;100.00
46087;BME280;31824;49.648;8.640;2023-04-03T03:32:48;101362.31;;;0.46;100.00
46087;BME280;31824;49.648;8.640;2023-04-03T03:35:51;101362.31;;;0.41;100.00
46087;BME280;31824;49.648;8.640;2023-04-03T03:38:55;101358.59;;;0.33;100.00
46087;BME280;31824;49.648;8.640;2023-04-03T03:41:58;101361.69;;;0.19;100.00
46087;BME280;31824;49.648;8.640;2023-04-03T03:45:00;101362.38;;;0.07;100.00
46087;BME280;31824;49.648;8.640;2023-04-03T03:48:03;101366.38;;;-0.01;100.00
46087;BME280;31824;49.648;8.640;2023-04-03T03:51:06;101373.44;;;-0.11;100.00
46087;BME280;31824;49.648;8.640;2023-04-03T03:54:11;101363.81;;;-0.07;100.00
46087;BME280;31824;49.648;8.640;2023-04-03T03:57:13;101363.78;;;-0.18;100.00
46087;BME280;31824;49.648;8.640;2023-04-03T04:00:16;101371.53;;;-0.18;100.00
46087;BME280;31824;49.648;8.640;2023-04-03T04:03:25;101365.22;;;-0.20;100.00
46087;BME280;31824;49.648;8.640;2023-04-03T04:06:28;101369.66;;;-0.19;100.00
46087;BME280;31824;49.648;8.640;2023-04-03T04:09:35;101368.50;;;-0.27;100.00
46087;BME280;31824;49.648;8.640;2023-04-03T04:12:37;101379.97;;;0.09;100.00
46087;BME280;31824;49.648;8.640;2023-04-03T04:15:40;101368.94;;;0.22;100.00
46087;BME280;31824;49.648;8.640;2023-04-03T04:18:42;101370.56;;;0.27;100.00
46087;BME280;31824;49.648;8.640;2023-04-03T04:21:45;101362.31;;;0.41;100.00
46087;BME280;31824;49.648;8.640;2023-04-03T04:24:48;101359.72;;;0.52;100.00
46087;BME280;31824;49.648;8.640;2023-04-03T04:27:49;101360.16;;;0.55;100.00
46087;BME280;31824;49.648;8.640;2023-04-03T04:30:52;101367.66;;;0.65;100.00
46087;BME280;31824;49.648;8.640;2023-04-03T04:34:03;101357.09;;;0.58;100.00
46087;BME280;31824;49.648;8.640;2023-04-03T04:37:06;101359.88;;;0.65;100.00
46087;BME280;31824;49.648;8.640;2023-04-03T04:40:09;101354.50;;;0.63;100.00
46087;BME280;31824;49.648;8.640;2023-04-03T04:43:12;101358.78;;;0.40;100.00
46087;BME280;31824;49.648;8.640;2023-04-03T04:46:19;101364.44;;;0.32;100.00
46087;BME280;31824;49.648;8.640;2023-04-03T04:49:28;101363.06;;;0.23;100.00
46087;BME280;31824;49.648;8.640;2023-04-03T04:52:32;101356.97;;;0.11;100.00
46087;BME280;31824;49.648;8.640;2023-04-03T04:55:34;101365.66;;;0.17;100.00
46087;BME280;31824;49.648;8.640;2023-04-03T04:58:37;101360.47;;;0.23;100.00
46087;BME280;31824;49.648;8.640;2023-04-03T05:01:41;101364.00;;;0.17;100.00
46087;BME280;31824;49.648;8.640;2023-04-03T05:04:52;101372.94;;;0.14;100.00
46087;BME280;31824;49.648;8.640;2023-04-03T05:08:02;101368.25;;;0.11;100.00
46087;BME280;31824;49.648;8.640;2023-04-03T05:11:04;101375.75;;;0.15;100.00
46087;BME280;31824;49.648;8.640;2023-04-03T05:14:08;101374.56;;;0.13;100.00
46087;BME280;31824;49.648;8.640;2023-04-03T05:17:10;101382.81;;;0.05;100.00
46087;BME280;31824;49.648;8.640;2023-04-03T05:20:18;101380.94;;;-0.02;100.00
46087;BME280;31824;49.648;8.640;2023-04-03T05:23:23;101385.88;;;0.08;100.00
46087;BME280;31824;49.648;8.640;2023-04-03T05:26:26;101396.44;;;0.21;100.00
46087;BME280;31824;49.648;8.640;2023-04-03T05:29:28;101398.78;;;0.14;100.00
46087;BME280;31824;49.648;8.640;2023-04-03T05:32:32;101401.13;;;0.18;100.00
46087;BME280;31824;49.648;8.640;2023-04-03T05:35:50;101399.25;;;0.23;100.00
46087;BME280;31824;49.648;8.640;2023-04-03T05:39:05;101406.75;;;0.21;100.00
46087;BME280;31824;49.648;8.640;2023-04-03T05:42:11;101404.88;;;0.20;100.00
46087;BME280;31824;49.648;8.640;2023-04-03T05:45:13;101398.75;;;0.31;100.00
46087;BME280;31824;49.648;8.640;2023-04-03T05:48:15;101407.22;;;0.24;100.00
46087;BME280;31824;49.648;8.640;2023-04-03T05:51:19;101395.00;;;0.35;100.00
46087;BME280;31824;49.648;8.640;2023-04-03T05:54:27;101412.88;;;0.33;100.00
46087;BME280;31824;49.648;8.640;2023-04-03T05:57:44;101410.50;;;0.40;100.00
46087;BME280;31824;49.648;8.640;2023-04-03T06:00:47;101410.94;;;0.43;100.00
46087;BME280;31824;49.648;8.640;2023-04-03T06:03:49;101410.25;;;0.39;100.00
46087;BME280;31824;49.648;8.640;2023-04-03T06:06:53;101409.81;;;0.36;100.00
46087;BME280;31824;49.648;8.640;2023-04-03T06:09:57;101410.47;;;0.46;100.00
46087;BME280;31824;49.648;8.640;2023-04-03T06:12:59;101417.53;;;0.47;100.00
46087;BME280;31824;49.648;8.640;2023-04-03T06:16:04;101414.03;;;0.46;100.00
46087;BME280;31824;49.648;8.640;2023-04-03T06:19:07;101422.50;;;0.34;100.00
46087;BME280;31824;49.648;8.640;2023-04-03T06:22:12;101420.38;;;0.43;100.00
46087;BME280;31824;49.648;8.640;2023-04-03T06:25:16;101425.03;;;0.51;100.00
46087;BME280;31824;49.648;8.640;2023-04-03T06:28:20;101426.41;;;0.72;100.00
46087;BME280;31824;49.648;8.640;2023-04-03T06:31:22;101437.88;;;0.91;100.00
46087;BME280;31824;49.648;8.640;2023-04-03T06:34:24;101428.47;;;0.91;100.00
46087;BME280;31824;49.648;8.640;2023-04-03T06:37:26;101432.13;;;1.16;100.00
46087;BME280;31824;49.648;8.640;2023-04-03T06:40:31;101427.97;;;1.46;100.00
46087;BME280;31824;49.648;8.640;2023-04-03T06:43:33;101428.00;;;1.76;100.00
46087;BME280;31824;49.648;8.640;2023-04-03T06:46:35;101432.19;;;1.87;100.00
46087;BME280;31824;49.648;8.640;2023-04-03T06:49:37;101431.81;;;2.02;100.00
46087;BME280;31824;49.648;8.640;2023-04-03T06:52:43;101433.69;;;2.33;100.00
46087;BME280;31824;49.648;8.640;2023-04-03T06:55:46;101434.94;;;2.48;100.00
46087;BME280;31824;49.648;8.640;2023-04-03T06:58:49;101443.34;;;2.59;100.00
46087;BME280;31824;49.648;8.640;2023-04-03T07:01:52;101437.66;;;2.61;100.00
46087;BME280;31824;49.648;8.640;2023-04-03T07:04:54;101437.69;;;2.80;100.00
46087;BME280;31824;49.648;8.640;2023-04-03T07:07:57;101449.59;;;2.91;100.00
46087;BME280;31824;49.648;8.640;2023-04-03T07:11:00;101450.31;;;2.90;100.00
46087;BME280;31824;49.648;8.640;2023-04-03T07:14:02;101453.75;;;3.20;100.00
46087;BME280;31824;49.648;8.640;2023-04-03T07:17:05;101450.69;;;3.54;100.00
46087;BME280;31824;49.648;8.640;2023-04-03T07:20:08;101451.50;;;3.66;100.00
46087;BME280;31824;49.648;8.640;2023-04-03T07:23:10;101456.31;;;3.38;100.00
46087;BME280;31824;49.648;8.640;2023-04-03T07:26:14;101461.72;;;3.77;100.00
46087;BME280;31824;49.648;8.640;2023-04-03T07:29:16;101462.19;;;3.93;100.00
46087;BME280;31824;49.648;8.640;2023-04-03T07:32:18;101466.09;;;4.15;100.00
46087;BME280;31824;49.648;8.640;2023-04-03T07:35:20;101470.78;;;4.18;100.00
46087;BME280;31824;49.648;8.640;2023-04-03T07:38:22;101469.16;;;4.31;100.00
46087;BME280;31824;49.648;8.640;2023-04-03T07:41:25;101469.56;;;4.34;100.00
46087;BME280;31824;49.648;8.640;2023-04-03T07:44:27;101466.44;;;4.37;100.00
46087;BME280;31824;49.648;8.640;2023-04-03T07:47:29;101465.72;;;4.51;100.00
46087;BME280;31824;49.648;8.640;2023-04-03T07:50:32;101469.38;;;4.71;100.00
46087;BME280;31824;49.648;8.640;2023-04-03T07:53:38;101461.56;;;4.84;100.00
46087;BME280;31824;49.648;8.640;2023-04-03T07:56:42;101481.44;;;4.84;100.00
46087;BME280;31824;49.648;8.640;2023-04-03T07:59:44;101475.31;;;4.83;100.00
46087;BME280;31824;49.648;8.640;2023-04-03T08:02:46;101475.28;;;4.96;100.00
46087;BME280;31824;49.648;8.640;2023-04-03T08:05:53;101480.63;;;5.03;100.00
46087;BME280;31824;49.648;8.640;2023-04-03T08:08:55;101481.31;;;5.15;100.00
46087;BME280;31824;49.648;8.640;2023-04-03T08:11:59;101484.75;;;5.21;100.00
46087;BME280;31824;49.648;8.640;2023-04-03T08:15:06;101478.94;;;5.04;100.00
46087;BME280;31824;49.648;8.640;2023-04-03T08:18:12;101476.31;;;5.17;100.00
46087;BME280;31824;49.648;8.640;2023-04-03T08:21:13;101481.38;;;5.35;100.00
46087;BME280;31824;49.648;8.640;2023-04-03T08:24:15;101483.00;;;5.48;100.00
46087;BME280;31824;49.648;8.640;2023-04-03T08:27:18;101485.72;;;5.75;100.00
46087;BME280;31824;49.648;8.640;2023-04-03T08:30:20;101486.41;;;5.87;100.00
46087;BME280;31824;49.648;8.640;2023-04-03T08:33:23;101483.59;;;5.85;100.00
46087;BME280;31824;49.648;8.640;2023-04-03T08:36:26;101483.91;;;6.14;100.00
46087;BME280;31824;49.648;8.640;2023-04-03T08:39:29;101472.69;;;5.75;100.00
46087;BME280;31824;49.648;8.640;2023-04-03T08:42:41;101479.91;;;6.03;100.00
46087;BME280;31824;49.648;8.640;2023-04-03T08:45:46;101466.72;;;6.09;100.00
46087;BME280;31824;49.648;8.640;2023-04-03T08:48:50;101479.06;;;5.97;100.00
46087;BME280;31824;49.648;8.640;2023-04-03T08:51:53;101476.28;;;5.96;100.00
46087;BME280;31824;49.648;8.640;2023-04-03T08:54:57;101468.44;;;5.75;100.00
46087;BME280;31824;49.648;8.640;2023-04-03T08:58:06;101477.81;;;5.81;100.00
46087;BME280;31824;49.648;8.640;2023-04-03T09:01:17;101481.06;;;5.92;100.00
46087;BME280;31824;49.648;8.640;2023-04-03T09:04:20;101479.78;;;5.76;100.00
46087;BME280;31824;49.648;8.640;2023-04-03T09:07:30;101481.97;;;6.06;100.00
46087;BME280;31824;49.648;8.640;2023-04-03T09:10:37;101484.63;;;6.13;100.00
46087;BME280;31824;49.648;8.640;2023-04-03T09:13:47;101482.59;;;6.11;100.00
46087;BME280;31824;49.648;8.640;2023-04-03T09:16:54;101481.59;;;6.03;100.00
46087;BME280;31824;49.648;8.640;2023-04-03T09:20:07;101486.84;;;6.50;100.00
46087;BME280;31824;49.648;8.640;2023-04-03T09:23:18;101471.53;;;6.81;100.00
46087;BME280;31824;49.648;8.640;2023-04-03T09:26:48;101477.91;;;6.83;100.00
46087;BME280;31824;49.648;8.640;2023-04-03T09:29:56;101472.66;;;7.17;100.00
46087;BME280;31824;49.648;8.640;2023-04-03T09:32:59;101468.69;;;7.06;100.00
46087;BME280;31824;49.648;8.640;2023-04-03T09:36:01;101462.72;;;7.07;100.00
46087;BME280;31824;49.648;8.640;2023-04-03T09:39:04;101466.41;;;6.95;100.00
46087;BME280;31824;49.648;8.640;2023-04-03T09:42:16;101476.03;;;6.82;100.00
46087;BME280;31824;49.648;8.640;2023-04-03T09:45:25;101475.00;;;6.67;100.00
46087;BME280;31824;49.648;8.640;2023-04-03T09:48:27;101464.91;;;6.97;100.00
46087;BME280;31824;49.648;8.640;2023-04-03T09:51:30;101462.69;;;7.42;100.00
46087;BME280;31824;49.648;8.640;2023-04-03T09:54:35;101460.72;;;7.19;100.00
46087;BME280;31824;49.648;8.640;2023-04-03T09:57:39;101465.47;;;7.36;100.00
46087;BME280;31824;49.648;8.640;2023-04-03T10:00:42;101467.16;;;7.43;100.00
46087;BME280;31824;49.648;8.640;2023-04-03T10:03:44;101462.53;;;7.06;100.00
46087;BME280;31824;49.648;8.640;2023-04-03T10:06:49;101462.13;;;7.44;100.00
46087;BME280;31824;49.648;8.640;2023-04-03T10:09:55;101467.09;;;7.21;100.00
46087;BME280;31824;49.648;8.640;2023-04-03T10:13:05;101457.94;;;7.96;100.00
46087;BME280;31824;49.648;8.640;2023-04-03T10:16:13;101450.25;;;7.19;100.00
46087;BME280;31824;49.648;8.640;2023-04-03T10:19:35;101461.03;;;7.57;100.00
46087;BME280;31824;49.648;8.640;2023-04-03T10:22:50;101442.41;;;7.75;100.00
46087;BME280;31824;49.648;8.640;2023-04-03T10:26:09;101452.09;;;7.55;100.00
46087;BME280;31824;49.648;8.640;2023-04-03T10:29:30;101446.56;;;7.24;100.00
46087;BME280;31824;49.648;8.640;2023-04-03T10:32:54;101446.78;;;6.91;100.00
46087;BME280;31824;49.648;8.640;2023-04-03T10:36:07;101440.06;;;7.35;100.00
46087;BME280;31824;49.648;8.640;2023-04-03T10:39:21;101452.81;;;7.47;100.00
46087;BME280;31824;49.648;8.640;2023-04-03T10:42:32;101436.34;;;7.48;100.00
46087;BME280;31824;49.648;8.640;2023-04-03T10:45:50;101437.94;;;7.89;100.00
46087;BME280;31824;49.648;8.640;2023-04-03T10:49:06;101439.41;;;7.94;100.00
46087;BME280;31824;49.648;8.640;2023-04-03T10:52:16;101444.50;;;8.28;100.00
46087;BME280;31824;49.648;8.640;2023-04-03T10:55:27;101444.09;;;8.18;100.00
46087;BME280;31824;49.648;8.640;2023-04-03T10:58:37;101450.53;;;9.01;100.00
46087;BME280;31824;49.648;8.640;2023-04-03T11:01:42;101447.53;;;9.05;100.00
46087;BME280;31824;49.648;8.640;2023-04-03T11:04:51;101436.94;;;8.82;100.00
46087;BME280;31824;49.648;8.640;2023-04-03T11:07:59;101444.03;;;8.98;100.00
46087;BME280;31824;49.648;8.640;2023-04-03T11:11:08;101428.34;;;8.83;100.00
46087;BME280;31824;49.648;8.640;2023-04-03T11:14:14;101434.72;;;8.78;100.00
46087;BME280;31824;49.648;8.640;2023-04-03T11:17:26;101435.31;;;8.39;100.00
46087;BME280;31824;49.648;8.640;2023-04-03T11:20:32;101430.09;;;8.47;100.00
46087;BME280;31824;49.648;8.640;2023-04-03T11:23:40;101439.06;;;8.56;100.00
46087;BME280;31824;49.648;8.640;2023-04-03T11:26:53;101431.78;;;8.53;100.00
46087;BME280;31824;49.648;8.640;2023-04-03T11:29:57;101418.09;;;8.63;100.00
46087;BME280;31824;49.648;8.640;2023-04-03T11:33:19;101423.50;;;8.72;100.00
46087;BME280;31824;49.648;8.640;2023-04-03T11:36:28;101425.25;;;9.46;100.00
46087;BME280;31824;49.648;8.640;2023-04-03T11:39:38;101431.75;;;9.20;100.00
46087;BME280;31824;49.648;8.640;2023-04-03T11:42:42;101425.81;;;9.06;100.00
46087;BME280;31824;49.648;8.640;2023-04-03T11:45:53;101427.03;;;8.79;100.00
46087;BME280;31824;49.648;8.640;2023-04-03T11:48:57;101425.31;;;9.32;100.00
46087;BME280;31824;49.648;8.640;2023-04-03T11:52:01;101420.00;;;8.57;100.00
46087;BME280;31824;49.648;8.640;2023-04-03T11:55:53;101417.69;;;9.19;100.00
46087;BME280;31824;49.648;8.640;2023-04-03T11:59:19;101395.47;;;8.56;100.00
46087;BME280;31824;49.648;8.640;2023-04-03T12:02:37;101407.41;;;10.83;100.00
46087;BME280;31824;49.648;8.640;2023-04-03T12:05:56;101401.47;;;9.99;100.00
46087;BME280;31824;49.648;8.640;2023-04-03T12:09:22;101400.41;;;10.12;100.00
46087;BME280;31824;49.648;8.640;2023-04-03T12:12:35;101397.94;;;9.68;100.00
46087;BME280;31824;49.648;8.640;2023-04-03T12:15:49;101403.66;;;9.56;100.00
46087;BME280;31824;49.648;8.640;2023-04-03T12:19:01;101400.19;;;9.34;100.00
46087;BME280;31824;49.648;8.640;2023-04-03T12:22:15;101391.84;;;9.22;100.00
46087;BME280;31824;49.648;8.640;2023-04-03T12:25:45;101379.19;;;8.37;100.00
46087;BME280;31824;49.648;8.640;2023-04-03T12:28:58;101399.72;;;8.77;100.00
46087;BME280;31824;49.648;8.640;2023-04-03T12:32:09;101394.69;;;9.17;100.00
46087;BME280;31824;49.648;8.640;2023-04-03T12:35:19;101391.88;;;9.15;100.00
46087;BME280;31824;49.648;8.640;2023-04-03T12:38:54;101377.78;;;9.83;100.00
46087;BME280;31824;49.648;8.640;2023-04-03T12:42:11;101390.94;;;10.77;100.00
46087;BME280;31824;49.648;8.640;2023-04-03T12:45:21;101380.09;;;10.74;100.00
46087;BME280;31824;49.648;8.640;2023-04-03T12:48:25;101368.69;;;11.79;100.00
46087;BME280;31824;49.648;8.640;2023-04-03T12:51:36;101363.72;;;11.08;100.00
46087;BME280;31824;49.648;8.640;2023-04-03T12:54:41;101370.41;;;9.87;100.00
46087;BME280;31824;49.648;8.640;2023-04-03T12:57:45;101362.22;;;9.31;100.00
46087;BME280;31824;49.648;8.640;2023-04-03T13:01:00;101363.53;;;8.97;100.00
46087;BME280;31824;49.648;8.640;2023-04-03T13:04:03;101376.22;;;9.01;100.00
46087;BME280;31824;49.648;8.640;2023-04-03T13:07:19;101367.94;;;8.67;100.00
46087;BME280;31824;49.648;8.640;2023-04-03T13:10:22;101371.88;;;9.69;100.00
46087;BME280;31824;49.648;8.640;2023-04-03T13:13:24;101355.31;;;10.88;100.00
46087;BME280;31824;49.648;8.640;2023-04-03T13:16:29;101352.31;;;11.57;100.00
46087;BME280;31824;49.648;8.640;2023-04-03T13:19:31;101354.56;;;11.45;95.56
46087;BME280;31824;49.648;8.640;2023-04-03T13:22:34;101363.03;;;10.86;100.00
46087;BME280;31824;49.648;8.640;2023-04-03T13:25:42;101349.81;;;10.45;100.00
46087;BME280;31824;49.648;8.640;2023-04-03T13:28:46;101352.31;;;11.57;100.00
46087;BME280;31824;49.648;8.640;2023-04-03T13:31:52;101346.06;;;11.48;100.00
46087;BME280;31824;49.648;8.640;2023-04-03T13:34:55;101333.81;;;10.83;100.00
46087;BME280;31824;49.648;8.640;2023-04-03T13:38:22;101338.72;;;10.09;100.00
46087;BME280;31824;49.648;8.640;2023-04-03T13:41:27;101340.03;;;9.66;100.00
46087;BME280;31824;49.648;8.640;2023-04-03T13:44:33;101343.13;;;10.72;97.74
46087;BME280;31824;49.648;8.640;2023-04-03T13:47:40;101348.28;;;11.61;100.00
46087;BME280;31824;49.648;8.640;2023-04-03T13:50:58;101338.16;;;13.10;96.37
46087;BME280;31824;49.648;8.640;2023-04-03T13:54:16;101341.88;;;10.37;96.54
46087;BME280;31824;49.648;8.640;2023-04-03T13:57:19;101335.19;;;9.85;98.17
46087;BME280;31824;49.648;8.640;2023-04-03T14:00:35;101335.88;;;11.85;96.56
46087;BME280;31824;49.648;8.640;2023-04-03T14:03:44;101342.88;;;11.35;92.22
46087;BME280;31824;49.648;8.640;2023-04-03T14:06:48;101341.78;;;10.76;92.10
46087;BME280;31824;49.648;8.640;2023-04-03T14:09:51;101328.13;;;11.86;86.64
46087;BME280;31824;49.648;8.640;2023-04-03T14:12:55;101333.13;;;11.92;89.31
46087;BME280;31824;49.648;8.640;2023-04-03T14:15:57;101327.72;;;11.16;84.75
46087;BME280;31824;49.648;8.640;2023-04-03T14:19:23;101325.94;;;12.15;86.73
46087;BME280;31824;49.648;8.640;2023-04-03T14:22:29;101315.34;;;12.49;89.06
46087;BME280;31824;49.648;8.640;2023-04-03T14:25:31;101326.06;;;13.12;88.50
46087;BME280;31824;49.648;8.640;2023-04-03T14:28:34;101321.09;;;12.71;80.53
46087;BME280;31824;49.648;8.640;2023-04-03T14:31:37;101321.88;;;12.02;80.90
46087;BME280;31824;49.648;8.640;2023-04-03T14:34:42;101311.94;;;12.76;78.15
46087;BME280;31824;49.648;8.640;2023-04-03T14:37:45;101292.88;;;12.70;84.88
46087;BME280;31824;49.648;8.640;2023-04-03T14:40:48;101307.34;;;10.34;88.02
46087;BME280;31824;49.648;8.640;2023-04-03T14:43:51;101303.81;;;11.55;87.44
46087;BME280;31824;49.648;8.640;2023-04-03T14:46:53;101279.16;;;12.30;82.95
46087;BME280;31824;49.648;8.640;2023-04-03T14:50:00;101293.31;;;11.30;84.05
46087;BME280;31824;49.648;8.640;2023-04-03T14:53:04;101289.03;;;12.07;81.36
46087;BME280;31824;49.648;8.640;2023-04-03T14:56:12;101301.19;;;11.55;84.62
46087;BME280;31824;49.648;8.640;2023-04-03T14:59:14;101298.41;;;11.54;84.73
46087;BME280;31824;49.648;8.640;2023-04-03T15:02:28;101295.78;;;11.87;84.36
46087;BME280;31824;49.648;8.640;2023-04-03T15:05:32;101293.97;;;11.61;83.56
46087;BME280;31824;49.648;8.640;2023-04-03T15:08:37;101295.94;;;12.40;80.39
46087;BME280;31824;49.648;8.640;2023-04-03T15:11:42;101284.44;;;12.22;82.39
46087;BME280;31824;49.648;8.640;2023-04-03T15:14:45;101286.78;;;12.27;82.60
46087;BME280;31824;49.648;8.640;2023-04-03T15:17:55;101287.38;;;12.25;85.89
46087;BME280;31824;49.648;8.640;2023-04-03T15:21:01;101286.03;;;12.81;86.64
46087;BME280;31824;49.648;8.640;2023-04-03T15:24:04;101280.28;;;11.57;83.98
46087;BME280;31824;49.648;8.640;2023-04-03T15:27:08;101284.03;;;11.59;85.82
46087;BME280;31824;49.648;8.640;2023-04-03T15:30:14;101284.75;;;11.00;90.10
46087;BME280;31824;49.648;8.640;2023-04-03T15:33:18;101292.97;;;11.03;89.35
46087;BME280;31824;49.648;8.640;2023-04-03T15:36:21;101287.78;;;12.03;87.99
46087;BME280;31824;49.648;8.640;2023-04-03T15:39:30;101284.13;;;11.76;90.63
46087;BME280;31824;49.648;8.640;2023-04-03T15:42:33;101285.72;;;10.84;85.51
46087;BME280;31824;49.648;8.640;2023-04-03T15:45:36;101282.69;;;10.56;92.15
46087;BME280;31824;49.648;8.640;2023-04-03T15:48:41;101276.91;;;9.65;97.62
46087;BME280;31824;49.648;8.640;2023-04-03T15:51:45;101284.88;;;10.76;84.28
46087;BME280;31824;49.648;8.640;2023-04-03T15:54:46;101282.94;;;10.19;87.79
46087;BME280;31824;49.648;8.640;2023-04-03T15:57:48;101274.66;;;10.55;84.49
46087;BME280;31824;49.648;8.640;2023-04-03T16:00:51;101273.75;;;9.99;87.64
46087;BME280;31824;49.648;8.640;2023-04-03T16:03:53;101271.59;;;10.43;88.35
46087;BME280;31824;49.648;8.640;2023-04-03T16:06:56;101288.38;;;10.68;86.04
46087;BME280;31824;49.648;8.640;2023-04-03T16:09:58;101283.50;;;10.00;84.82
46087;BME280;31824;49.648;8.640;2023-04-03T16:13:05;101288.59;;;10.30;84.82